createdAt,value
2022-08-10T00:00:12.599Z,3.20
2022-08-10T00:03:01.700Z,2.90
2022-08-10T00:05:43.828Z,3.10
2022-08-10T00:08:22.741Z,3.80
2022-08-10T00:10:55.876Z,3.60
2022-08-10T00:13:27.127Z,5.10
2022-08-10T00:15:55.827Z,3.70
2022-08-10T00:18:34.626Z,4.70
2022-08-10T00:21:07.612Z,2.70
2022-08-10T00:23:37.622Z,3.70
2022-08-10T00:26:07.388Z,3.70
2022-08-10T00:28:36.117Z,4.00
2022-08-10T00:31:04.795Z,2.60
2022-08-10T00:33:33.490Z,4.50
2022-08-10T00:36:02.168Z,2.40
2022-08-10T00:38:30.855Z,3.10
2022-08-10T00:41:19.590Z,2.20
2022-08-10T00:43:48.204Z,3.80
2022-08-10T00:46:16.812Z,2.90
2022-08-10T00:48:45.618Z,4.00
2022-08-10T00:51:22.106Z,2.50
2022-08-10T00:54:09.804Z,5.20
2022-08-10T00:57:15.872Z,5.00
2022-08-10T00:59:59.159Z,2.40
2022-08-10T01:02:32.847Z,4.40
2022-08-10T01:05:09.722Z,3.40
2022-08-10T01:08:15.329Z,2.40
2022-08-10T01:12:34.137Z,2.00
2022-08-10T01:14:09.717Z,2.90
2022-08-10T01:16:54.043Z,5.70
2022-08-10T01:19:44.158Z,2.10
2022-08-10T01:22:32.620Z,1.90
2022-08-10T01:26:12.046Z,1.90
2022-08-10T01:29:37.026Z,1.80
2022-08-10T01:32:08.914Z,2.90
2022-08-10T01:35:07.349Z,1.80
2022-08-10T01:37:52.138Z,2.70
2022-08-10T01:40:25.972Z,3.30
2022-08-10T01:43:08.031Z,1.60
2022-08-10T01:45:46.312Z,2.70
2022-08-10T01:48:33.389Z,2.10
2022-08-10T01:51:11.907Z,2.30
2022-08-10T01:53:56.463Z,2.60
2022-08-10T01:56:28.880Z,2.30
2022-08-10T01:59:40.436Z,2.70
2022-08-10T02:02:14.282Z,2.70
2022-08-10T02:04:49.699Z,3.00
2022-08-10T02:07:24.618Z,2.40
2022-08-10T02:09:57.084Z,2.30
2022-08-10T02:12:31.746Z,4.60
2022-08-10T02:15:10.879Z,1.70
2022-08-10T02:18:00.527Z,4.10
2022-08-10T02:20:52.144Z,4.50
2022-08-10T02:23:30.405Z,2.90
2022-08-10T02:26:01.908Z,3.00
2022-08-10T02:28:34.843Z,2.60
2022-08-10T02:31:11.786Z,4.00
2022-08-10T02:33:57.322Z,3.50
2022-08-10T02:36:33.432Z,4.50
2022-08-10T02:39:05.498Z,3.00
2022-08-10T02:45:02.255Z,1.80
2022-08-10T02:45:29.674Z,3.10
2022-08-10T02:48:07.579Z,2.10
2022-08-10T02:50:39.075Z,2.00
2022-08-10T02:53:55.169Z,5.10
2022-08-10T02:56:28.946Z,2.90
2022-08-10T02:59:06.215Z,2.90
2022-08-10T03:01:42.644Z,5.20
2022-08-10T03:05:16.004Z,2.50
2022-08-10T03:10:25.302Z,6.20
2022-08-10T03:13:00.154Z,2.20
2022-08-10T03:15:31.577Z,4.20
2022-08-10T03:18:02.798Z,2.80
2022-08-10T03:20:40.534Z,2.50
2022-08-10T03:23:18.896Z,3.10
2022-08-10T03:25:53.381Z,2.90
2022-08-10T03:28:27.370Z,3.60
2022-08-10T03:30:59.567Z,3.20
2022-08-10T03:33:37.211Z,2.80
2022-08-10T03:36:40.494Z,3.50
2022-08-10T03:38:55.610Z,3.30
2022-08-10T03:41:42.195Z,5.70
2022-08-10T03:44:33.803Z,3.00
2022-08-10T03:47:04.737Z,5.70
2022-08-10T03:49:48.084Z,3.90
2022-08-10T03:52:19.143Z,2.70
2022-08-10T03:54:51.735Z,2.60
2022-08-10T03:57:23.796Z,2.70
2022-08-10T03:59:53.827Z,5.00
2022-08-10T04:02:44.008Z,3.30
2022-08-10T04:05:16.023Z,3.80
2022-08-10T04:07:45.497Z,5.60
2022-08-10T04:10:14.755Z,2.90
2022-08-10T04:12:44.300Z,3.00
2022-08-10T04:15:13.948Z,4.00
2022-08-10T04:18:04.298Z,3.10
2022-08-10T04:20:40.996Z,4.80
2022-08-10T04:23:16.022Z,2.50
2022-08-10T04:25:45.266Z,3.60
2022-08-10T04:28:15.016Z,4.70
2022-08-10T04:30:46.187Z,3.20
2022-08-10T04:33:19.097Z,2.40
2022-08-10T04:35:48.437Z,2.80
2022-08-10T04:38:18.657Z,7.30
2022-08-10T04:40:48.091Z,2.70
2022-08-10T04:43:16.946Z,7.50
2022-08-10T04:46:20.181Z,2.50
2022-08-10T04:49:01.973Z,2.40
2022-08-10T04:51:30.919Z,2.30
2022-08-10T04:54:03.992Z,8.00
2022-08-10T04:56:37.477Z,5.60
2022-08-10T04:59:09.264Z,3.20
2022-08-10T05:02:22.339Z,4.00
2022-08-10T05:04:34.907Z,2.80
2022-08-10T05:07:16.050Z,3.50
2022-08-10T05:10:01.699Z,5.70
2022-08-10T05:12:38.543Z,2.40
2022-08-10T05:15:13.883Z,2.30
2022-08-10T05:18:03.361Z,1.80
2022-08-10T05:20:32.229Z,3.40
2022-08-10T05:23:01.018Z,6.40
2022-08-10T05:26:03.495Z,2.30
2022-08-10T05:28:32.672Z,2.40
2022-08-10T05:31:30.677Z,5.30
2022-08-10T05:34:00.552Z,12.30
2022-08-10T05:36:30.273Z,2.50
2022-08-10T05:39:01.353Z,3.60
2022-08-10T05:41:31.299Z,5.00
2022-08-10T05:44:26.323Z,4.40
2022-08-10T05:46:54.959Z,3.20
2022-08-10T05:49:53.492Z,3.30
2022-08-10T05:52:22.850Z,4.10
2022-08-10T05:54:51.631Z,3.20
2022-08-10T05:57:23.238Z,3.70
2022-08-10T06:00:29.495Z,3.20
2022-08-10T06:03:10.994Z,2.90
2022-08-10T06:05:46.708Z,2.40
2022-08-10T06:08:23.002Z,2.20
2022-08-10T06:12:26.316Z,2.00
2022-08-10T06:14:16.149Z,2.10
2022-08-10T06:16:48.562Z,3.20
2022-08-10T06:19:18.380Z,4.20
2022-08-10T06:21:55.348Z,2.60
2022-08-10T06:24:34.106Z,2.30
2022-08-10T06:27:09.899Z,3.40
2022-08-10T06:29:46.847Z,2.10
2022-08-10T06:32:16.810Z,4.30
2022-08-10T06:34:57.350Z,2.20
2022-08-10T06:37:29.939Z,1.70
2022-08-10T06:39:59.809Z,2.00
2022-08-10T06:42:36.115Z,2.70
2022-08-10T06:45:22.256Z,3.10
2022-08-10T06:48:10.698Z,2.70
2022-08-10T06:50:58.802Z,2.80
2022-08-10T06:53:53.961Z,4.80
2022-08-10T06:56:36.249Z,3.20
2022-08-10T06:59:22.047Z,4.20
2022-08-10T07:02:00.484Z,2.40
2022-08-10T07:05:23.782Z,2.90
2022-08-10T07:07:58.537Z,4.30
2022-08-10T07:10:41.192Z,1.40
2022-08-10T07:14:15.316Z,3.00
2022-08-10T07:16:12.733Z,2.50
2022-08-10T07:21:13.710Z,3.20
2022-08-10T07:23:56.789Z,2.40
2022-08-10T07:26:31.264Z,3.40
2022-08-10T07:29:00.966Z,2.40
2022-08-10T07:31:56.879Z,3.10
2022-08-10T07:34:29.060Z,2.90
2022-08-10T07:37:38.559Z,2.60
2022-08-10T07:40:21.405Z,3.30
2022-08-10T07:43:18.247Z,2.10
2022-08-10T07:45:48.773Z,5.00
2022-08-10T07:48:27.932Z,3.00
2022-08-10T07:53:51.660Z,3.30
2022-08-10T07:56:48.887Z,2.50
2022-08-10T07:59:48.009Z,2.80
2022-08-10T08:02:29.572Z,3.80
2022-08-10T08:05:09.163Z,2.30
2022-08-10T08:07:39.415Z,5.00
2022-08-10T08:10:12.535Z,2.80
2022-08-10T08:12:43.248Z,3.10
2022-08-10T08:16:16.786Z,3.20
2022-08-10T08:18:13.288Z,3.20
2022-08-10T08:20:44.661Z,3.10
2022-08-10T08:24:05.777Z,3.30
2022-08-10T08:26:08.805Z,4.00
2022-08-10T08:28:39.867Z,3.20
2022-08-10T08:31:10.029Z,6.00
2022-08-10T08:33:41.587Z,5.20
2022-08-10T08:36:16.299Z,2.80
2022-08-10T08:38:47.663Z,2.70
2022-08-10T08:41:51.151Z,3.20
2022-08-10T08:44:50.624Z,4.30
2022-08-10T08:48:04.538Z,3.50
2022-08-10T08:51:08.648Z,7.90
2022-08-10T08:54:00.896Z,3.90
2022-08-10T08:57:06.492Z,3.90
2022-08-10T09:00:35.092Z,3.30
2022-08-10T09:04:20.115Z,3.10
2022-08-10T09:07:59.356Z,3.90
2022-08-10T09:10:57.253Z,4.80
2022-08-10T09:13:42.700Z,3.20
2022-08-10T09:16:30.194Z,2.70
2022-08-10T09:19:36.192Z,5.50
2022-08-10T09:22:23.067Z,3.30
2022-08-10T09:24:59.640Z,3.10
2022-08-10T09:28:07.287Z,3.30
2022-08-10T09:31:22.845Z,2.40
2022-08-10T09:36:25.754Z,2.90
2022-08-10T09:37:42.568Z,2.80
2022-08-10T09:41:00.230Z,5.00
2022-08-10T09:43:38.977Z,2.80
2022-08-10T09:47:06.047Z,2.90
2022-08-10T09:50:04.946Z,3.40
2022-08-10T09:53:15.872Z,3.40
2022-08-10T09:56:59.825Z,3.50
2022-08-10T10:00:23.917Z,3.30
2022-08-10T10:03:24.090Z,3.50
2022-08-10T10:06:10.366Z,2.90
2022-08-10T10:09:10.380Z,5.40
2022-08-10T10:12:09.852Z,4.10
2022-08-10T10:15:25.213Z,3.00
2022-08-10T10:18:09.018Z,7.20
2022-08-10T10:21:06.469Z,3.50
2022-08-10T10:24:30.211Z,2.70
2022-08-10T10:27:43.591Z,5.10
2022-08-10T10:30:27.130Z,4.30
2022-08-10T10:33:55.444Z,2.80
2022-08-10T10:36:42.830Z,2.70
2022-08-10T10:39:23.767Z,5.20
2022-08-10T10:42:45.361Z,2.90
2022-08-10T10:45:53.262Z,3.20
2022-08-10T10:48:40.083Z,4.10
2022-08-10T10:51:19.631Z,3.70
2022-08-10T10:54:32.791Z,3.00
2022-08-10T10:57:10.608Z,2.90
2022-08-10T11:00:09.652Z,5.20
2022-08-10T11:02:55.369Z,5.10
2022-08-10T11:06:02.930Z,2.40
2022-08-10T11:08:41.132Z,3.00
2022-08-10T11:11:59.633Z,2.10
2022-08-10T11:14:33.521Z,3.10
2022-08-10T11:17:44.427Z,7.80
2022-08-10T11:21:07.106Z,9.00
2022-08-10T11:24:47.171Z,2.20
2022-08-10T11:27:06.460Z,3.60
2022-08-10T11:29:59.586Z,4.90
2022-08-10T11:32:43.216Z,1.90
2022-08-10T11:35:37.127Z,3.00
2022-08-10T11:38:57.573Z,3.80
2022-08-10T11:42:10.292Z,2.70
2022-08-10T11:45:00.292Z,1.90
2022-08-10T11:47:58.108Z,2.80
2022-08-10T11:50:38.501Z,2.20
2022-08-10T11:53:27.654Z,3.10
2022-08-10T11:56:13.471Z,2.70
2022-08-10T12:02:00.592Z,2.20
2022-08-10T12:04:33.094Z,3.90
2022-08-10T12:10:40.984Z,4.30
2022-08-10T12:13:20.132Z,4.00
2022-08-10T12:16:17.626Z,2.80
2022-08-10T12:19:02.879Z,4.10
2022-08-10T12:22:06.366Z,6.20
2022-08-10T12:24:53.055Z,6.80
2022-08-10T12:27:42.217Z,3.70
2022-08-10T12:30:21.251Z,2.60
2022-08-10T12:33:19.062Z,3.00
2022-08-10T12:36:27.258Z,3.90
2022-08-10T12:38:58.848Z,4.30
2022-08-10T12:44:47.346Z,4.10
2022-08-10T12:47:47.376Z,2.30
2022-08-10T12:51:30.854Z,7.40
2022-08-10T12:54:13.897Z,2.90
2022-08-10T13:00:17.536Z,3.20
2022-08-10T13:02:49.700Z,3.80
2022-08-10T13:05:18.990Z,3.00
2022-08-10T13:08:35.393Z,2.20
2022-08-10T13:12:36.638Z,2.50
2022-08-10T13:14:24.171Z,3.10
2022-08-10T13:17:01.088Z,2.10
2022-08-10T13:20:12.970Z,2.90
2022-08-10T13:22:46.326Z,7.00
2022-08-10T13:25:32.125Z,3.60
2022-08-10T13:28:37.235Z,2.00
2022-08-10T13:31:17.074Z,3.10
2022-08-10T13:34:40.217Z,2.60
2022-08-10T13:37:18.464Z,5.80
2022-08-10T13:39:59.806Z,2.30
2022-08-10T13:42:37.324Z,1.70
2022-08-10T13:45:28.336Z,3.70
2022-08-10T13:48:17.163Z,4.10
2022-08-10T13:50:57.134Z,5.20
2022-08-10T13:53:34.628Z,2.80
2022-08-10T13:56:06.239Z,4.10
2022-08-10T13:58:42.691Z,4.80
2022-08-10T14:01:21.558Z,8.80
2022-08-10T14:04:14.409Z,4.00
2022-08-10T14:09:28.104Z,2.90
2022-08-10T14:12:01.665Z,2.50
2022-08-10T14:14:32.504Z,3.50
2022-08-10T14:17:03.447Z,3.60
2022-08-10T14:19:43.309Z,7.70
2022-08-10T14:22:19.740Z,3.00
2022-08-10T14:25:13.426Z,2.60
2022-08-10T14:28:03.120Z,4.20
2022-08-10T14:30:35.182Z,4.60
2022-08-10T14:33:13.839Z,9.70
2022-08-10T14:36:18.725Z,3.10
2022-08-10T14:38:38.120Z,4.30
2022-08-10T14:42:01.406Z,2.90
2022-08-10T14:44:14.006Z,3.70
2022-08-10T14:46:51.350Z,6.60
2022-08-10T14:49:26.667Z,3.90
2022-08-10T14:52:04.223Z,3.30
2022-08-10T14:54:37.318Z,6.30
2022-08-10T14:57:20.845Z,4.10
2022-08-10T15:00:22.930Z,3.10
2022-08-10T15:02:58.189Z,5.00
2022-08-10T15:05:39.711Z,5.40
2022-08-10T15:12:15.209Z,5.30
2022-08-10T15:14:44.802Z,6.70
2022-08-10T15:17:37.583Z,6.00
2022-08-10T15:20:55.389Z,6.90
2022-08-10T15:24:15.375Z,5.10
2022-08-10T15:27:54.535Z,5.50
2022-08-10T15:31:06.471Z,4.40
2022-08-10T15:34:06.462Z,7.00
2022-08-10T15:37:39.966Z,3.90
2022-08-10T15:40:31.249Z,4.80
2022-08-10T15:43:44.646Z,6.00
2022-08-10T15:47:05.976Z,5.30
2022-08-10T15:50:05.814Z,4.30
2022-08-10T15:53:02.607Z,4.30
2022-08-10T15:55:53.236Z,3.90
2022-08-10T15:59:12.286Z,5.00
2022-08-10T16:02:16.145Z,3.70
2022-08-10T16:05:40.774Z,3.80
2022-08-10T16:08:56.702Z,5.50
2022-08-10T16:11:38.714Z,4.00
2022-08-10T16:14:19.013Z,4.60
2022-08-10T16:16:56.589Z,6.30
2022-08-10T16:19:27.996Z,4.80
2022-08-10T16:22:35.278Z,6.10
2022-08-10T16:25:02.337Z,3.70
2022-08-10T16:27:33.304Z,6.60
2022-08-10T16:30:07.359Z,9.20
2022-08-10T16:32:39.554Z,8.70
2022-08-10T16:35:16.938Z,16.60
2022-08-10T16:37:57.732Z,14.40
2022-08-10T16:40:31.629Z,13.90
2022-08-10T16:43:06.806Z,9.60
2022-08-10T16:45:50.848Z,5.40
2022-08-10T16:48:33.308Z,6.00
2022-08-10T16:51:21.925Z,13.60
2022-08-10T16:53:52.494Z,7.20
2022-08-10T16:56:48.585Z,7.00
2022-08-10T16:59:39.581Z,12.70
2022-08-10T17:02:24.754Z,18.20
2022-08-10T17:04:55.409Z,10.80
2022-08-10T17:07:35.989Z,8.90
2022-08-10T17:10:49.566Z,11.20
2022-08-10T17:13:32.965Z,13.90
2022-08-10T17:16:05.867Z,6.50
2022-08-10T17:19:26.763Z,6.60
2022-08-10T17:22:10.985Z,5.60
2022-08-10T17:25:04.756Z,8.40
2022-08-10T17:28:05.881Z,6.70
2022-08-10T17:30:58.025Z,8.10
2022-08-10T17:33:30.929Z,11.80
2022-08-10T17:36:04.505Z,7.70
2022-08-10T17:38:37.930Z,8.10
2022-08-10T17:41:14.868Z,6.10
2022-08-10T17:44:01.849Z,6.00
2022-08-10T17:46:41.681Z,7.10
2022-08-10T17:49:16.097Z,5.80
2022-08-10T17:52:00.197Z,9.10
2022-08-10T17:55:10.036Z,4.80
2022-08-10T17:58:01.593Z,13.00
2022-08-10T18:00:33.723Z,16.30
2022-08-10T18:03:06.077Z,17.00
2022-08-10T18:05:36.752Z,15.80
2022-08-10T18:08:14.885Z,17.20
2022-08-10T18:14:34.379Z,14.80
2022-08-10T18:17:17.450Z,15.20
2022-08-10T18:19:54.874Z,13.00
2022-08-10T18:22:27.166Z,13.50
2022-08-10T18:25:00.793Z,8.40
2022-08-10T18:28:00.190Z,10.30
2022-08-10T18:32:59.294Z,18.00
2022-08-10T18:35:34.793Z,16.20
2022-08-10T18:38:07.081Z,15.00
2022-08-10T18:40:40.710Z,17.00
2022-08-10T18:44:07.482Z,12.20
2022-08-10T18:46:03.243Z,14.60
2022-08-10T18:48:50.452Z,17.80
2022-08-10T18:51:35.819Z,14.50
2022-08-10T18:54:39.384Z,15.20
2022-08-10T18:58:08.627Z,12.80
2022-08-10T19:00:57.924Z,12.30
2022-08-10T19:03:37.389Z,8.80
2022-08-10T19:07:03.169Z,9.80
2022-08-10T19:10:30.435Z,12.50
2022-08-10T19:13:20.163Z,10.00
2022-08-10T19:16:22.483Z,6.80
2022-08-10T19:19:22.080Z,5.40
2022-08-10T19:21:58.687Z,11.60
2022-08-10T19:25:10.331Z,5.50
2022-08-10T19:27:52.878Z,8.00
2022-08-10T19:30:40.703Z,5.70
2022-08-10T19:37:25.086Z,7.40
2022-08-10T19:40:16.631Z,4.80
2022-08-10T19:43:00.636Z,9.50
2022-08-10T19:46:12.877Z,7.70
2022-08-10T19:48:52.980Z,4.80
2022-08-10T19:52:11.014Z,6.80
2022-08-10T19:55:18.337Z,6.80
2022-08-10T19:58:23.123Z,6.50
2022-08-10T20:01:05.909Z,13.60
2022-08-10T20:06:26.980Z,15.40
2022-08-10T20:09:24.332Z,10.10
2022-08-10T20:12:14.529Z,14.50
2022-08-10T20:15:20.361Z,11.50
2022-08-10T20:17:56.120Z,12.90
2022-08-10T20:20:45.025Z,9.00
2022-08-10T20:23:33.262Z,14.30
2022-08-10T20:26:17.967Z,8.40
2022-08-10T20:29:16.522Z,6.00
2022-08-10T20:32:18.500Z,5.70
2022-08-10T20:35:01.829Z,6.80
2022-08-10T20:38:01.966Z,6.70
2022-08-10T20:40:49.737Z,7.90
2022-08-10T20:43:47.784Z,8.20
2022-08-10T20:46:35.883Z,8.10
2022-08-10T20:49:38.862Z,5.90
2022-08-10T20:54:54.562Z,6.50
2022-08-10T20:57:55.134Z,6.40
2022-08-10T21:01:02.238Z,6.50
2022-08-10T21:04:06.508Z,6.20
2022-08-10T21:11:14.009Z,7.50
2022-08-10T21:14:30.908Z,7.30
2022-08-10T21:18:09.902Z,7.30
2022-08-10T21:21:09.416Z,14.60
2022-08-10T21:23:50.780Z,9.90
2022-08-10T21:26:55.265Z,8.20
2022-08-10T21:38:19.570Z,7.30
2022-08-10T21:41:57.157Z,8.80
2022-08-10T21:45:16.806Z,10.00
2022-08-10T21:48:37.658Z,12.90
2022-08-10T21:52:05.554Z,9.80
2022-08-10T21:55:03.115Z,7.40
2022-08-10T21:58:20.437Z,8.40
2022-08-10T22:01:42.086Z,9.10
2022-08-10T22:04:32.437Z,14.10
2022-08-10T22:07:22.220Z,7.10
2022-08-10T22:10:16.767Z,9.00
2022-08-10T22:13:08.606Z,6.60
2022-08-10T22:16:11.617Z,5.30
2022-08-10T22:19:04.772Z,7.60
2022-08-10T22:22:27.097Z,6.10
2022-08-10T22:26:17.985Z,6.70
2022-08-10T22:29:12.223Z,5.80
2022-08-10T22:32:47.567Z,6.40
2022-08-10T22:35:54.272Z,5.60
2022-08-10T22:39:09.140Z,4.00
2022-08-10T22:42:11.686Z,4.30
2022-08-10T22:45:05.990Z,5.10
2022-08-10T22:47:53.306Z,5.30
2022-08-10T22:50:27.141Z,6.00
2022-08-10T22:53:09.224Z,7.70
2022-08-10T22:56:07.745Z,7.90
2022-08-10T22:58:41.100Z,7.10
2022-08-10T23:01:39.190Z,5.60
2022-08-10T23:04:34.772Z,6.60
2022-08-10T23:07:22.881Z,5.40
2022-08-10T23:09:59.325Z,7.20
2022-08-10T23:12:55.160Z,4.90
2022-08-10T23:15:51.717Z,5.40
2022-08-10T23:19:02.881Z,5.40
2022-08-10T23:22:02.969Z,5.10
2022-08-10T23:25:04.930Z,5.70
2022-08-10T23:27:37.380Z,6.00
2022-08-10T23:30:17.447Z,4.70
2022-08-10T23:32:52.353Z,7.30
2022-08-10T23:36:31.497Z,6.80
2022-08-10T23:40:49.496Z,4.40
2022-08-10T23:43:32.100Z,5.60
2022-08-10T23:46:11.894Z,6.80
2022-08-10T23:48:45.612Z,6.20
2022-08-10T23:51:17.532Z,4.80
2022-08-10T23:53:52.094Z,4.60
2022-08-10T23:56:25.242Z,6.60
2022-08-10T23:58:59.952Z,6.90
